createdAt,value
2023-03-16T00:01:17.284Z,48.13
2023-03-16T00:04:14.200Z,48.27
2023-03-16T00:07:06.631Z,48.48
2023-03-16T00:09:56.650Z,48.56
2023-03-16T00:12:45.464Z,48.50
2023-03-16T00:15:35.557Z,48.33
2023-03-16T00:18:27.226Z,48.44
2023-03-16T00:21:16.545Z,49.01
2023-03-16T00:24:07.943Z,48.68
2023-03-16T00:26:58.391Z,48.77
2023-03-16T00:29:49.219Z,48.44
2023-03-16T00:32:39.247Z,48.70
2023-03-16T00:35:28.043Z,48.57
2023-03-16T00:38:16.690Z,48.64
2023-03-16T00:41:06.641Z,48.57
2023-03-16T00:43:56.659Z,48.60
2023-03-16T00:46:45.374Z,48.84
2023-03-16T00:49:34.796Z,48.89
2023-03-16T00:52:25.340Z,49.05
2023-03-16T00:55:13.902Z,48.95
2023-03-16T00:58:05.107Z,48.70
2023-03-16T01:00:57.245Z,48.68
2023-03-16T01:03:46.145Z,48.85
2023-03-16T01:06:35.483Z,49.04
2023-03-16T01:09:24.098Z,48.79
2023-03-16T01:12:17.174Z,48.84
2023-03-16T01:15:07.002Z,49.18
2023-03-16T01:17:57.017Z,48.68
2023-03-16T01:20:50.750Z,48.60
2023-03-16T01:23:39.482Z,48.86
2023-03-16T01:26:28.463Z,48.82
2023-03-16T01:29:17.160Z,49.19
2023-03-16T01:32:06.460Z,48.98
2023-03-16T01:34:56.401Z,48.97
2023-03-16T01:37:45.316Z,48.66
2023-03-16T01:40:33.931Z,49.08
2023-03-16T01:43:24.101Z,48.92
2023-03-16T01:46:20.326Z,48.85
2023-03-16T01:49:14.769Z,48.87
2023-03-16T01:52:06.974Z,48.89
2023-03-16T01:54:59.489Z,48.65
2023-03-16T01:57:48.570Z,49.14
2023-03-16T02:00:41.872Z,48.77
2023-03-16T02:03:34.494Z,48.94
2023-03-16T02:06:24.031Z,48.88
2023-03-16T02:09:14.948Z,49.10
2023-03-16T02:12:03.926Z,48.88
2023-03-16T02:14:52.980Z,48.80
2023-03-16T02:17:43.688Z,48.85
2023-03-16T02:20:38.498Z,48.79
2023-03-16T02:23:28.202Z,48.69
2023-03-16T02:26:25.697Z,49.07
2023-03-16T02:29:21.087Z,49.01
2023-03-16T02:32:12.288Z,48.62
2023-03-16T02:35:02.469Z,49.08
2023-03-16T02:37:52.530Z,48.66
2023-03-16T02:40:44.152Z,49.03
2023-03-16T02:43:35.558Z,49.32
2023-03-16T02:46:27.770Z,48.86
2023-03-16T02:49:26.096Z,49.08
2023-03-16T02:52:14.854Z,48.88
2023-03-16T02:55:06.114Z,48.63
2023-03-16T02:57:54.806Z,49.13
2023-03-16T03:00:44.976Z,48.93
2023-03-16T03:03:34.596Z,48.76
2023-03-16T03:06:25.545Z,48.82
2023-03-16T03:09:14.514Z,48.92
2023-03-16T03:12:03.179Z,48.86
2023-03-16T03:14:51.922Z,48.91
2023-03-16T03:17:43.163Z,48.83
2023-03-16T03:20:34.233Z,48.88
2023-03-16T03:23:25.533Z,48.89
2023-03-16T03:26:15.588Z,48.89
2023-03-16T03:29:04.949Z,48.89
2023-03-16T03:31:55.145Z,48.87
2023-03-16T03:34:44.128Z,49.12
2023-03-16T03:37:38.291Z,49.00
2023-03-16T03:40:30.138Z,48.89
2023-03-16T03:43:19.605Z,48.95
2023-03-16T03:46:08.989Z,48.70
2023-03-16T03:49:03.706Z,48.93
2023-03-16T03:51:52.524Z,48.81
2023-03-16T03:54:41.311Z,48.88
2023-03-16T03:57:31.376Z,48.56
2023-03-16T04:00:22.018Z,48.72
2023-03-16T04:03:10.802Z,48.99
2023-03-16T04:05:59.592Z,48.81
2023-03-16T04:08:48.344Z,48.93
2023-03-16T04:11:37.098Z,48.75
2023-03-16T04:14:29.558Z,48.96
2023-03-16T04:17:20.428Z,48.61
2023-03-16T04:20:14.790Z,48.66
2023-03-16T04:23:05.994Z,48.87
2023-03-16T04:25:56.005Z,48.49
2023-03-16T04:28:46.141Z,48.85
2023-03-16T04:31:37.557Z,48.88
2023-03-16T04:34:26.970Z,48.87
2023-03-16T04:37:17.978Z,48.75
2023-03-16T04:40:12.186Z,48.66
2023-03-16T04:43:01.734Z,48.74
2023-03-16T04:45:51.138Z,48.60
2023-03-16T04:48:42.379Z,48.90
2023-03-16T04:51:31.891Z,48.95
2023-03-16T04:54:21.187Z,48.81
2023-03-16T04:57:10.845Z,49.00
2023-03-16T05:00:00.052Z,48.97
2023-03-16T05:02:50.153Z,48.72
2023-03-16T05:05:42.997Z,48.54
2023-03-16T05:08:32.923Z,48.80
2023-03-16T05:11:21.580Z,48.54
2023-03-16T05:14:10.773Z,48.55
2023-03-16T05:16:59.448Z,48.60
2023-03-16T05:19:48.166Z,48.57
2023-03-16T05:22:38.100Z,48.30
2023-03-16T05:25:26.795Z,48.83
2023-03-16T05:28:17.277Z,48.73
2023-03-16T05:31:06.099Z,48.85
2023-03-16T05:33:55.347Z,48.87
2023-03-16T05:36:45.162Z,47.34
2023-03-16T05:39:35.364Z,47.67
2023-03-16T05:42:24.387Z,48.23
2023-03-16T05:45:15.707Z,48.01
2023-03-16T05:48:05.885Z,48.42
2023-03-16T05:50:55.013Z,48.48
2023-03-16T05:53:46.727Z,48.98
2023-03-16T05:56:37.094Z,48.77
2023-03-16T05:59:25.731Z,48.90
2023-03-16T06:02:14.503Z,48.70
2023-03-16T06:05:03.200Z,49.06
2023-03-16T06:07:52.080Z,49.08
2023-03-16T06:10:40.765Z,49.13
2023-03-16T06:13:31.012Z,49.07
2023-03-16T06:16:19.763Z,48.91
2023-03-16T06:19:08.672Z,48.72
2023-03-16T06:21:57.580Z,48.40
2023-03-16T06:24:46.449Z,48.70
2023-03-16T06:27:35.343Z,48.48
2023-03-16T06:30:28.067Z,48.04
2023-03-16T06:33:17.135Z,47.61
2023-03-16T06:36:06.392Z,48.07
2023-03-16T06:38:55.170Z,48.47
2023-03-16T06:41:44.336Z,48.63
2023-03-16T06:44:33.367Z,48.81
2023-03-16T06:47:23.541Z,48.79
2023-03-16T06:50:13.086Z,49.10
2023-03-16T06:53:01.730Z,49.11
2023-03-16T06:55:50.545Z,49.01
2023-03-16T06:58:39.234Z,48.54
2023-03-16T07:01:27.910Z,49.12
2023-03-16T07:04:20.137Z,48.60
2023-03-16T07:07:08.862Z,49.13
2023-03-16T07:09:57.543Z,49.05
2023-03-16T07:12:46.404Z,48.67
2023-03-16T07:15:35.182Z,48.94
2023-03-16T07:18:25.883Z,48.55
2023-03-16T07:21:16.316Z,48.42
2023-03-16T07:24:05.267Z,48.96
2023-03-16T07:26:53.906Z,48.80
2023-03-16T07:29:42.621Z,48.58
2023-03-16T07:32:32.376Z,48.66
2023-03-16T07:35:21.682Z,48.55
2023-03-16T07:38:12.248Z,48.50
2023-03-16T07:41:00.977Z,48.19
2023-03-16T07:43:49.744Z,48.42
2023-03-16T07:46:38.745Z,48.39
2023-03-16T07:49:27.738Z,48.26
2023-03-16T07:52:16.296Z,48.28
2023-03-16T07:55:07.363Z,47.97
2023-03-16T07:57:56.364Z,48.01
2023-03-16T08:00:45.074Z,47.91
2023-03-16T08:03:33.734Z,47.54
2023-03-16T08:06:25.383Z,48.08
2023-03-16T08:09:14.033Z,47.80
2023-03-16T08:12:04.302Z,48.20
2023-03-16T08:14:54.589Z,48.05
2023-03-16T08:17:43.215Z,47.58
2023-03-16T08:20:32.469Z,47.34
2023-03-16T08:23:22.335Z,46.94
2023-03-16T08:26:11.674Z,47.13
2023-03-16T08:29:03.421Z,47.17
2023-03-16T08:31:52.194Z,47.08
2023-03-16T08:34:46.183Z,47.08
2023-03-16T08:37:34.996Z,47.06
2023-03-16T08:40:25.631Z,47.36
2023-03-16T08:43:17.309Z,47.21
2023-03-16T08:46:08.153Z,47.20
2023-03-16T08:48:56.890Z,47.38
2023-03-16T08:51:46.540Z,47.12
2023-03-16T08:54:35.265Z,47.62
2023-03-16T08:57:24.373Z,47.42
2023-03-16T09:00:14.855Z,47.08
2023-03-16T09:03:05.510Z,47.05
2023-03-16T09:05:54.591Z,47.08
2023-03-16T09:08:44.367Z,46.63
2023-03-16T09:11:33.737Z,47.16
2023-03-16T09:14:22.371Z,47.08
2023-03-16T09:17:12.849Z,47.15
2023-03-16T09:20:19.599Z,47.14
2023-03-16T09:23:10.697Z,47.30
2023-03-16T09:26:00.580Z,47.69
2023-03-16T09:28:49.698Z,47.28
2023-03-16T09:31:38.702Z,47.39
2023-03-16T09:34:28.549Z,47.45
2023-03-16T09:37:18.976Z,47.68
2023-03-16T09:40:12.017Z,47.66
2023-03-16T09:43:12.742Z,47.99
2023-03-16T09:46:05.546Z,47.82
2023-03-16T09:48:54.334Z,47.99
2023-03-16T09:51:46.946Z,48.05
2023-03-16T09:54:42.188Z,47.86
2023-03-16T09:57:34.795Z,48.17
2023-03-16T10:00:26.283Z,47.91
2023-03-16T10:03:27.077Z,48.01
2023-03-16T10:06:17.071Z,48.31
2023-03-16T10:09:10.496Z,48.30
2023-03-16T10:12:03.885Z,48.25
2023-03-16T10:14:57.783Z,48.34
2023-03-16T10:17:52.643Z,48.15
2023-03-16T10:20:42.305Z,48.23
2023-03-16T10:23:34.328Z,48.24
2023-03-16T10:26:25.567Z,48.26
2023-03-16T10:29:16.668Z,48.33
2023-03-16T10:32:14.579Z,48.25
2023-03-16T10:35:07.364Z,48.22
2023-03-16T10:37:58.544Z,48.31
2023-03-16T10:40:47.700Z,48.23
2023-03-16T10:43:37.037Z,48.46
2023-03-16T10:46:29.547Z,48.33
2023-03-16T10:49:27.592Z,48.24
2023-03-16T10:52:20.939Z,48.27
2023-03-16T10:55:13.289Z,48.48
2023-03-16T10:58:03.401Z,48.34
2023-03-16T11:00:53.603Z,48.35
2023-03-16T11:03:43.695Z,48.56
2023-03-16T11:06:34.546Z,48.25
2023-03-16T11:09:26.155Z,48.45
2023-03-16T11:12:17.244Z,48.48
2023-03-16T11:15:11.569Z,48.53
2023-03-16T11:18:05.936Z,48.35
2023-03-16T11:20:57.788Z,48.40
2023-03-16T11:23:49.720Z,48.19
2023-03-16T11:26:42.913Z,47.92
2023-03-16T11:29:45.179Z,48.19
2023-03-16T11:32:35.689Z,48.24
2023-03-16T11:35:29.311Z,48.19
2023-03-16T11:38:20.870Z,48.12
2023-03-16T11:41:12.436Z,48.07
2023-03-16T11:44:06.997Z,48.09
2023-03-16T11:47:00.466Z,48.08
2023-03-16T11:49:54.576Z,48.09
2023-03-16T11:52:48.572Z,48.08
2023-03-16T11:55:43.384Z,48.03
2023-03-16T11:58:42.042Z,47.99
2023-03-16T12:01:43.236Z,47.97
2023-03-16T12:05:01.593Z,48.12
2023-03-16T12:07:58.141Z,48.05
2023-03-16T12:10:52.188Z,47.80
2023-03-16T12:14:08.514Z,47.99
2023-03-16T12:17:01.229Z,47.94
2023-03-16T12:19:54.085Z,47.88
2023-03-16T12:22:45.390Z,47.98
2023-03-16T12:25:36.625Z,47.85
2023-03-16T12:28:31.834Z,47.81
2023-03-16T12:31:22.654Z,48.11
2023-03-16T12:34:25.633Z,47.88
2023-03-16T12:37:23.940Z,48.10
2023-03-16T12:40:23.492Z,48.05
2023-03-16T12:43:25.719Z,48.24
2023-03-16T12:46:18.642Z,48.02
2023-03-16T12:49:08.321Z,48.17
2023-03-16T12:52:01.556Z,47.95
2023-03-16T12:54:53.788Z,47.88
2023-03-16T12:57:44.057Z,48.03
2023-03-16T13:00:37.554Z,48.43
2023-03-16T13:03:31.341Z,48.47
2023-03-16T13:06:23.494Z,48.52
2023-03-16T13:09:13.537Z,48.79
2023-03-16T13:12:05.076Z,48.83
2023-03-16T13:14:55.010Z,48.88
2023-03-16T13:17:44.419Z,48.69
2023-03-16T13:20:39.407Z,48.69
2023-03-16T13:23:30.164Z,48.99
2023-03-16T13:26:20.783Z,49.07
2023-03-16T13:29:31.187Z,48.66
2023-03-16T13:32:33.359Z,48.90
2023-03-16T13:35:23.292Z,49.03
2023-03-16T13:38:19.002Z,48.75
2023-03-16T13:41:16.871Z,48.95
2023-03-16T13:44:06.541Z,48.72
2023-03-16T13:46:55.124Z,48.72
2023-03-16T13:49:47.246Z,48.64
2023-03-16T13:52:36.861Z,48.61
2023-03-16T13:55:32.293Z,48.62
2023-03-16T13:58:24.270Z,48.41
2023-03-16T14:01:20.396Z,48.65
2023-03-16T14:04:14.017Z,47.54
2023-03-16T14:07:04.355Z,47.49
2023-03-16T14:09:53.759Z,47.39
2023-03-16T14:12:52.655Z,46.63
2023-03-16T14:15:50.906Z,46.29
2023-03-16T14:18:42.544Z,44.68
2023-03-16T14:21:34.092Z,34.58
2023-03-16T14:24:31.112Z,32.76
2023-03-16T14:27:22.833Z,31.26
2023-03-16T14:30:20.212Z,31.10
2023-03-16T14:33:27.368Z,29.84
2023-03-16T14:36:17.717Z,29.03
2023-03-16T14:39:13.297Z,28.45
2023-03-16T14:42:06.961Z,27.60
2023-03-16T14:44:55.765Z,28.66
2023-03-16T14:47:48.504Z,30.34
2023-03-16T14:50:37.487Z,31.30
2023-03-16T14:53:28.672Z,31.69
2023-03-16T14:56:17.822Z,31.78
2023-03-16T14:59:09.028Z,32.00
2023-03-16T15:01:58.139Z,32.88
2023-03-16T15:04:49.492Z,32.30
2023-03-16T15:07:40.650Z,32.69
2023-03-16T15:10:31.950Z,32.59
2023-03-16T15:13:35.079Z,31.95
2023-03-16T15:16:24.103Z,31.89
2023-03-16T15:19:16.206Z,32.12
2023-03-16T15:22:07.032Z,31.71
2023-03-16T15:25:00.163Z,31.87
2023-03-16T15:27:49.499Z,32.60
2023-03-16T15:30:38.157Z,33.02
2023-03-16T15:33:27.956Z,32.81
2023-03-16T15:36:18.278Z,31.84
2023-03-16T15:39:10.009Z,31.93
2023-03-16T15:41:58.614Z,31.42
2023-03-16T15:44:48.378Z,31.40
2023-03-16T15:47:37.170Z,31.53
2023-03-16T15:50:26.182Z,31.56
2023-03-16T15:53:29.826Z,31.55
2023-03-16T15:56:26.569Z,31.36
2023-03-16T15:59:17.231Z,31.58
2023-03-16T16:02:26.262Z,31.65
2023-03-16T16:05:15.054Z,31.32
2023-03-16T16:08:05.671Z,31.65
2023-03-16T16:10:54.627Z,31.86
2023-03-16T16:13:45.465Z,31.77
2023-03-16T16:16:34.350Z,30.92
2023-03-16T16:19:23.319Z,30.76
2023-03-16T16:22:13.752Z,30.44
2023-03-16T16:25:05.292Z,30.49
2023-03-16T16:27:53.933Z,30.12
2023-03-16T16:30:44.216Z,30.93
2023-03-16T16:33:34.893Z,31.97
2023-03-16T16:36:25.203Z,32.32
2023-03-16T16:39:16.153Z,31.69
2023-03-16T16:42:05.282Z,32.29
2023-03-16T16:44:54.757Z,32.60
2023-03-16T16:47:52.367Z,32.68
2023-03-16T16:50:41.424Z,32.71
2023-03-16T16:53:30.800Z,32.62
2023-03-16T16:56:24.567Z,32.83
2023-03-16T16:59:18.129Z,32.54
2023-03-16T17:02:25.204Z,32.77
2023-03-16T17:05:21.244Z,32.76
2023-03-16T17:08:12.296Z,32.74
2023-03-16T17:11:01.010Z,32.73
2023-03-16T17:13:50.561Z,33.77
2023-03-16T17:16:39.332Z,34.27
2023-03-16T17:19:29.221Z,35.12
2023-03-16T17:22:24.401Z,35.46
2023-03-16T17:25:14.350Z,35.61
2023-03-16T17:28:03.784Z,35.85
2023-03-16T17:30:52.716Z,36.35
2023-03-16T17:33:42.250Z,36.53
2023-03-16T17:36:31.348Z,37.03
2023-03-16T17:39:22.692Z,37.00
2023-03-16T17:42:14.201Z,36.78
2023-03-16T17:45:04.905Z,37.20
2023-03-16T17:47:55.696Z,37.09
2023-03-16T17:50:46.134Z,37.13
2023-03-16T17:53:34.697Z,37.13
2023-03-16T17:56:27.812Z,37.51
2023-03-16T17:59:18.101Z,38.15
2023-03-16T18:02:18.863Z,38.68
2023-03-16T18:05:10.311Z,38.80
2023-03-16T18:08:01.035Z,39.01
2023-03-16T18:10:51.810Z,39.29
2023-03-16T18:13:42.464Z,39.16
2023-03-16T18:16:31.426Z,39.35
2023-03-16T18:19:25.209Z,39.47
2023-03-16T18:22:19.498Z,39.60
2023-03-16T18:25:26.765Z,40.06
2023-03-16T18:28:15.880Z,39.19
2023-03-16T18:31:07.730Z,38.59
2023-03-16T18:33:58.065Z,38.96
2023-03-16T18:36:46.864Z,39.16
2023-03-16T18:39:35.516Z,39.11
2023-03-16T18:42:27.798Z,39.63
2023-03-16T18:45:17.601Z,39.33
2023-03-16T18:48:11.351Z,39.40
2023-03-16T18:51:00.045Z,39.31
2023-03-16T18:53:50.788Z,39.81
2023-03-16T18:56:39.481Z,40.47
2023-03-16T18:59:28.568Z,40.46
2023-03-16T19:02:29.870Z,40.08
2023-03-16T19:05:23.596Z,40.26
2023-03-16T19:08:14.534Z,40.13
2023-03-16T19:11:04.466Z,40.01
2023-03-16T19:13:54.716Z,39.88
2023-03-16T19:16:44.031Z,40.01
2023-03-16T19:19:32.706Z,40.48
2023-03-16T19:22:23.920Z,40.98
2023-03-16T19:25:18.313Z,41.17
2023-03-16T19:28:08.877Z,41.28
2023-03-16T19:30:58.045Z,41.08
2023-03-16T19:33:46.926Z,40.81
2023-03-16T19:36:38.356Z,41.28
2023-03-16T19:39:28.890Z,41.08
2023-03-16T19:42:22.594Z,41.24
2023-03-16T19:45:18.535Z,41.41
2023-03-16T19:48:13.648Z,41.53
2023-03-16T19:51:02.761Z,41.24
2023-03-16T19:53:51.415Z,41.22
2023-03-16T19:56:41.599Z,41.30
2023-03-16T19:59:33.157Z,41.42
2023-03-16T20:02:26.543Z,41.64
2023-03-16T20:05:20.183Z,41.63
2023-03-16T20:08:22.757Z,41.58
2023-03-16T20:11:18.564Z,41.71
2023-03-16T20:14:19.571Z,41.78
2023-03-16T20:17:11.389Z,41.62
2023-03-16T20:20:00.152Z,41.52
2023-03-16T20:22:48.893Z,41.70
2023-03-16T20:25:37.494Z,41.93
2023-03-16T20:28:30.068Z,41.82
2023-03-16T20:31:22.500Z,42.49
2023-03-16T20:34:20.711Z,42.80
2023-03-16T20:37:25.664Z,42.58
2023-03-16T20:40:14.598Z,42.68
2023-03-16T20:43:04.204Z,42.32
2023-03-16T20:45:53.202Z,42.12
2023-03-16T20:48:43.330Z,42.60
2023-03-16T20:51:32.022Z,42.24
2023-03-16T20:54:20.661Z,42.53
2023-03-16T20:57:15.759Z,42.69
2023-03-16T21:00:05.558Z,42.61
2023-03-16T21:02:55.649Z,43.18
2023-03-16T21:05:46.496Z,43.36
2023-03-16T21:08:35.107Z,43.68
2023-03-16T21:11:25.543Z,43.82
2023-03-16T21:14:18.060Z,43.47
2023-03-16T21:17:07.596Z,44.03
2023-03-16T21:19:57.036Z,44.01
2023-03-16T21:22:47.474Z,44.43
2023-03-16T21:25:39.052Z,44.15
2023-03-16T21:28:30.361Z,44.04
2023-03-16T21:31:19.755Z,43.47
2023-03-16T21:34:19.992Z,43.05
2023-03-16T21:37:28.092Z,43.10
2023-03-16T21:40:33.209Z,43.14
2023-03-16T21:43:41.919Z,43.07
2023-03-16T21:46:31.345Z,43.07
2023-03-16T21:49:20.244Z,43.11
2023-03-16T21:52:12.852Z,43.06
2023-03-16T21:55:01.986Z,43.44
2023-03-16T21:57:53.008Z,43.44
2023-03-16T22:00:41.833Z,44.01
2023-03-16T22:03:47.918Z,43.96
2023-03-16T22:06:41.482Z,44.31
2023-03-16T22:09:33.077Z,43.95
2023-03-16T22:12:21.774Z,44.32
2023-03-16T22:15:12.760Z,44.25
2023-03-16T22:18:03.761Z,44.16
2023-03-16T22:20:52.846Z,44.58
2023-03-16T22:23:42.302Z,43.94
2023-03-16T22:26:35.544Z,44.54
2023-03-16T22:29:47.141Z,44.59
2023-03-16T22:32:37.147Z,44.50
2023-03-16T22:35:32.341Z,44.51
2023-03-16T22:38:21.305Z,44.30
2023-03-16T22:41:13.868Z,44.42
2023-03-16T22:44:03.080Z,44.72
2023-03-16T22:46:51.832Z,44.50
2023-03-16T22:49:43.310Z,44.69
2023-03-16T22:52:34.569Z,44.42
2023-03-16T22:55:25.732Z,44.51
2023-03-16T22:58:19.872Z,44.93
2023-03-16T23:01:17.116Z,44.71
2023-03-16T23:04:14.470Z,44.69
2023-03-16T23:07:04.564Z,44.67
2023-03-16T23:09:54.089Z,44.84
2023-03-16T23:12:42.784Z,44.73
2023-03-16T23:15:32.529Z,45.01
2023-03-16T23:18:23.976Z,44.83
2023-03-16T23:21:15.389Z,45.11
2023-03-16T23:24:06.260Z,45.27
2023-03-16T23:26:55.725Z,45.13
2023-03-16T23:29:44.686Z,45.34
2023-03-16T23:32:33.359Z,45.02
2023-03-16T23:35:25.021Z,45.31
2023-03-16T23:38:14.234Z,44.88
2023-03-16T23:41:04.139Z,45.20
2023-03-16T23:43:53.177Z,45.00
2023-03-16T23:46:42.144Z,45.38
2023-03-16T23:49:32.811Z,45.53
2023-03-16T23:52:21.627Z,45.62
2023-03-16T23:55:14.326Z,45.54
2023-03-16T23:58:04.378Z,45.46
